createdAt,value
2023-02-20T00:00:19.989Z,3.60
2023-02-20T00:02:49.109Z,2.90
2023-02-20T00:05:16.944Z,3.92
2023-02-20T00:07:44.540Z,3.08
2023-02-20T00:10:12.761Z,2.92
2023-02-20T00:12:40.444Z,3.05
2023-02-20T00:15:08.539Z,3.30
2023-02-20T00:17:37.324Z,3.70
2023-02-20T00:20:07.248Z,3.15
2023-02-20T00:22:34.795Z,3.08
2023-02-20T00:25:02.453Z,3.00
2023-02-20T00:27:30.347Z,3.30
2023-02-20T00:29:57.993Z,3.10
2023-02-20T00:32:25.441Z,3.30
2023-02-20T00:34:54.251Z,3.38
2023-02-20T00:37:21.996Z,3.40
2023-02-20T00:39:49.502Z,3.70
2023-02-20T00:42:17.007Z,3.10
2023-02-20T00:44:44.547Z,3.33
2023-02-20T00:47:12.040Z,3.30
2023-02-20T00:49:39.539Z,3.45
2023-02-20T00:52:08.427Z,3.63
2023-02-20T00:54:35.971Z,3.65
2023-02-20T00:57:04.880Z,3.13
2023-02-20T00:59:32.323Z,3.40
2023-02-20T01:01:59.923Z,3.72
2023-02-20T01:04:27.606Z,3.35
2023-02-20T01:06:55.136Z,3.35
2023-02-20T01:09:24.021Z,4.13
2023-02-20T01:11:51.535Z,3.90
2023-02-20T01:14:21.955Z,3.45
2023-02-20T01:16:51.320Z,3.30
2023-02-20T01:19:19.387Z,3.28
2023-02-20T01:21:48.644Z,3.40
2023-02-20T01:24:16.660Z,4.07
2023-02-20T01:26:46.140Z,3.30
2023-02-20T01:29:13.819Z,3.30
2023-02-20T01:31:41.683Z,3.30
2023-02-20T01:34:09.271Z,3.72
2023-02-20T01:36:38.032Z,4.00
2023-02-20T01:39:05.717Z,3.67
2023-02-20T01:41:33.169Z,3.58
2023-02-20T01:44:02.044Z,3.58
2023-02-20T01:46:51.424Z,3.75
2023-02-20T01:49:21.963Z,3.58
2023-02-20T01:51:54.756Z,3.42
2023-02-20T01:54:23.362Z,4.25
2023-02-20T01:56:51.207Z,3.60
2023-02-20T01:59:21.686Z,3.50
2023-02-20T02:01:49.555Z,3.42
2023-02-20T02:04:17.092Z,3.70
2023-02-20T02:06:47.580Z,3.95
2023-02-20T02:09:19.655Z,3.35
2023-02-20T02:11:48.297Z,3.95
2023-02-20T02:14:15.776Z,3.65
2023-02-20T02:16:46.379Z,3.95
2023-02-20T02:19:19.070Z,4.00
2023-02-20T02:22:05.578Z,3.72
2023-02-20T02:24:39.369Z,3.92
2023-02-20T02:27:24.191Z,3.47
2023-02-20T02:29:59.676Z,3.95
2023-02-20T02:32:44.150Z,3.20
2023-02-20T02:35:27.076Z,3.35
2023-02-20T02:38:01.998Z,4.03
2023-02-20T02:40:31.065Z,3.65
2023-02-20T02:43:02.584Z,3.72
2023-02-20T02:45:32.677Z,3.70
2023-02-20T02:48:02.433Z,4.90
2023-02-20T02:50:30.748Z,3.45
2023-02-20T02:52:59.578Z,3.65
2023-02-20T02:55:28.224Z,3.50
2023-02-20T02:57:56.040Z,3.50
2023-02-20T03:00:25.094Z,3.83
2023-02-20T03:02:56.480Z,3.72
2023-02-20T03:05:25.628Z,3.53
2023-02-20T03:07:54.614Z,3.40
2023-02-20T03:10:31.903Z,3.95
2023-02-20T03:13:06.668Z,3.45
2023-02-20T03:15:35.735Z,3.55
2023-02-20T03:18:19.562Z,3.60
2023-02-20T03:20:48.374Z,4.25
2023-02-20T03:23:16.952Z,3.60
2023-02-20T03:25:49.819Z,3.50
2023-02-20T03:28:19.017Z,3.15
2023-02-20T03:30:48.027Z,3.30
2023-02-20T03:33:35.670Z,3.55
2023-02-20T03:36:22.411Z,3.45
2023-02-20T03:39:09.841Z,3.20
2023-02-20T03:41:56.797Z,4.00
2023-02-20T03:44:25.568Z,3.03
2023-02-20T03:46:53.243Z,4.15
2023-02-20T03:49:21.777Z,3.00
2023-02-20T03:52:01.231Z,2.75
2023-02-20T03:54:30.018Z,3.40
2023-02-20T03:57:00.863Z,2.95
2023-02-20T03:59:30.769Z,3.00
2023-02-20T04:01:59.682Z,3.20
2023-02-20T04:04:29.696Z,3.00
2023-02-20T04:06:58.020Z,3.42
2023-02-20T04:09:27.895Z,3.40
2023-02-20T04:11:59.068Z,3.28
2023-02-20T04:14:29.696Z,3.20
2023-02-20T04:16:59.464Z,3.63
2023-02-20T04:19:26.985Z,3.38
2023-02-20T04:21:56.432Z,3.33
2023-02-20T04:24:25.481Z,3.10
2023-02-20T04:26:53.117Z,3.33
2023-02-20T04:29:20.596Z,3.17
2023-02-20T04:31:49.459Z,3.80
2023-02-20T04:34:16.908Z,4.88
2023-02-20T04:36:44.402Z,3.20
2023-02-20T04:39:11.896Z,3.63
2023-02-20T04:41:39.400Z,3.00
2023-02-20T04:44:24.379Z,3.47
2023-02-20T04:46:53.158Z,3.90
2023-02-20T04:49:20.674Z,3.88
2023-02-20T04:51:48.031Z,4.35
2023-02-20T04:54:15.513Z,3.65
2023-02-20T04:56:43.026Z,3.47
2023-02-20T04:59:10.433Z,3.35
2023-02-20T05:01:38.017Z,4.13
2023-02-20T05:04:06.925Z,3.38
2023-02-20T05:06:34.369Z,4.25
2023-02-20T05:09:01.780Z,4.00
2023-02-20T05:11:29.264Z,3.60
2023-02-20T05:13:56.853Z,3.97
2023-02-20T05:16:24.355Z,3.50
2023-02-20T05:18:51.817Z,4.10
2023-02-20T05:21:37.968Z,4.15
2023-02-20T05:24:07.452Z,3.60
2023-02-20T05:26:36.775Z,3.45
2023-02-20T05:29:04.328Z,4.00
2023-02-20T05:31:31.873Z,3.67
2023-02-20T05:33:59.332Z,4.45
2023-02-20T05:36:28.336Z,4.00
2023-02-20T05:38:55.777Z,4.30
2023-02-20T05:41:23.286Z,4.03
2023-02-20T05:43:50.727Z,4.43
2023-02-20T05:46:20.871Z,4.65
2023-02-20T05:48:49.862Z,4.32
2023-02-20T05:51:20.752Z,4.60
2023-02-20T05:53:49.619Z,4.68
2023-02-20T05:56:17.177Z,4.28
2023-02-20T05:58:45.026Z,4.15
2023-02-20T06:01:17.558Z,5.00
2023-02-20T06:03:45.048Z,4.05
2023-02-20T06:06:12.715Z,4.00
2023-02-20T06:08:40.380Z,4.00
2023-02-20T06:11:10.767Z,4.30
2023-02-20T06:13:40.367Z,4.30
2023-02-20T06:16:07.940Z,4.40
2023-02-20T06:18:35.590Z,4.05
2023-02-20T06:21:02.965Z,4.35
2023-02-20T06:23:30.476Z,4.82
2023-02-20T06:25:57.889Z,4.93
2023-02-20T06:28:26.674Z,4.95
2023-02-20T06:30:54.193Z,5.23
2023-02-20T06:33:21.603Z,4.22
2023-02-20T06:35:49.218Z,5.00
2023-02-20T06:38:16.742Z,4.87
2023-02-20T06:40:44.945Z,4.82
2023-02-20T06:43:12.474Z,4.53
2023-02-20T06:45:41.274Z,5.10
2023-02-20T06:48:08.757Z,4.82
2023-02-20T06:50:36.317Z,8.40
2023-02-20T06:53:03.934Z,6.85
2023-02-20T06:55:31.472Z,6.97
2023-02-20T06:57:59.073Z,6.70
2023-02-20T07:00:27.128Z,6.13
2023-02-20T07:02:55.943Z,6.88
2023-02-20T07:05:23.378Z,5.72
2023-02-20T07:07:50.819Z,7.10
2023-02-20T07:10:18.328Z,5.80
2023-02-20T07:12:45.693Z,5.13
2023-02-20T07:15:13.388Z,5.53
2023-02-20T07:17:40.840Z,6.10
2023-02-20T07:20:11.110Z,4.90
2023-02-20T07:22:38.559Z,6.78
2023-02-20T07:25:06.524Z,5.38
2023-02-20T07:27:33.947Z,6.17
2023-02-20T07:30:01.490Z,6.53
2023-02-20T07:32:29.085Z,5.80
2023-02-20T07:35:04.381Z,4.63
2023-02-20T07:37:34.977Z,4.38
2023-02-20T07:40:02.429Z,4.50
2023-02-20T07:42:29.868Z,4.80
2023-02-20T07:44:57.265Z,4.43
2023-02-20T07:47:24.705Z,4.03
2023-02-20T07:49:52.085Z,3.83
2023-02-20T07:52:19.547Z,4.00
2023-02-20T07:54:48.304Z,3.90
2023-02-20T07:57:16.510Z,3.88
2023-02-20T07:59:44.030Z,4.03
2023-02-20T08:02:11.547Z,4.03
2023-02-20T08:04:39.009Z,3.50
2023-02-20T08:07:07.716Z,3.40
2023-02-20T08:09:35.311Z,3.15
2023-02-20T08:12:04.208Z,3.30
2023-02-20T08:14:31.688Z,3.05
2023-02-20T08:16:59.170Z,3.00
2023-02-20T08:19:26.693Z,2.90
2023-02-20T08:21:54.203Z,3.08
2023-02-20T08:24:21.710Z,2.78
2023-02-20T08:26:50.073Z,3.05
2023-02-20T08:29:19.016Z,2.88
2023-02-20T08:31:46.642Z,3.10
2023-02-20T08:34:14.169Z,2.55
2023-02-20T08:36:44.728Z,3.05
2023-02-20T08:39:12.173Z,3.10
2023-02-20T08:41:42.968Z,2.85
2023-02-20T08:44:10.384Z,2.55
2023-02-20T08:46:39.179Z,2.63
2023-02-20T08:49:06.619Z,2.50
2023-02-20T08:51:34.112Z,2.80
2023-02-20T08:54:01.594Z,2.83
2023-02-20T08:56:29.117Z,2.60
2023-02-20T08:58:56.538Z,3.03
2023-02-20T09:01:24.971Z,2.92
2023-02-20T09:03:53.789Z,3.00
2023-02-20T09:06:21.249Z,3.15
2023-02-20T09:08:49.580Z,3.72
2023-02-20T09:11:17.460Z,3.75
2023-02-20T09:13:45.498Z,2.72
2023-02-20T09:16:15.498Z,3.00
2023-02-20T09:18:44.298Z,3.42
2023-02-20T09:21:13.746Z,2.92
2023-02-20T09:23:41.276Z,2.70
2023-02-20T09:26:08.749Z,2.50
2023-02-20T09:28:36.404Z,2.67
2023-02-20T09:31:04.360Z,2.63
2023-02-20T09:33:31.848Z,2.38
2023-02-20T09:35:59.300Z,2.85
2023-02-20T09:38:29.401Z,2.83
2023-02-20T09:40:58.725Z,2.38
2023-02-20T09:43:31.543Z,2.20
2023-02-20T09:46:02.492Z,2.90
2023-02-20T09:48:36.340Z,3.00
2023-02-20T09:51:06.146Z,2.65
2023-02-20T09:53:38.397Z,2.38
2023-02-20T09:56:07.267Z,2.55
2023-02-20T09:58:41.073Z,2.20
2023-02-20T10:01:09.119Z,2.80
2023-02-20T10:03:40.297Z,3.03
2023-02-20T10:06:14.912Z,3.83
2023-02-20T10:08:43.753Z,4.18
2023-02-20T10:11:16.988Z,2.80
2023-02-20T10:13:51.473Z,2.55
2023-02-20T10:16:27.014Z,2.55
2023-02-20T10:18:57.898Z,2.30
2023-02-20T10:21:32.627Z,2.40
2023-02-20T10:24:06.753Z,2.15
2023-02-20T10:26:35.618Z,3.13
2023-02-20T10:29:17.201Z,3.17
2023-02-20T10:31:46.718Z,2.63
2023-02-20T10:34:18.160Z,2.42
2023-02-20T10:36:46.723Z,2.60
2023-02-20T10:39:16.959Z,2.42
2023-02-20T10:41:47.729Z,2.38
2023-02-20T10:44:19.056Z,2.40
2023-02-20T10:46:50.605Z,2.30
2023-02-20T10:49:19.726Z,2.38
2023-02-20T10:51:49.307Z,2.53
2023-02-20T10:54:20.658Z,2.08
2023-02-20T10:56:51.618Z,2.83
2023-02-20T10:59:23.171Z,2.30
2023-02-20T11:01:57.833Z,2.10
2023-02-20T11:04:26.974Z,2.10
2023-02-20T11:06:56.076Z,2.30
2023-02-20T11:09:25.581Z,2.30
2023-02-20T11:11:54.626Z,2.58
2023-02-20T11:14:39.415Z,2.03
2023-02-20T11:17:10.587Z,2.80
2023-02-20T11:19:44.912Z,2.38
2023-02-20T11:22:13.085Z,2.58
2023-02-20T11:24:42.216Z,2.63
2023-02-20T11:27:11.709Z,2.38
2023-02-20T11:29:42.285Z,2.28
2023-02-20T11:32:18.852Z,2.22
2023-02-20T11:34:46.468Z,2.17
2023-02-20T11:37:14.646Z,2.53
2023-02-20T11:39:48.511Z,2.10
2023-02-20T11:42:17.152Z,2.10
2023-02-20T11:44:44.917Z,1.90
2023-02-20T11:47:21.390Z,1.98
2023-02-20T11:49:49.568Z,1.88
2023-02-20T11:52:18.255Z,1.90
2023-02-20T11:54:47.056Z,2.17
2023-02-20T11:57:25.318Z,2.40
2023-02-20T11:59:53.444Z,2.28
2023-02-20T12:02:28.278Z,2.30
2023-02-20T12:05:03.733Z,2.08
2023-02-20T12:07:36.231Z,2.28
2023-02-20T12:10:06.469Z,2.22
2023-02-20T12:12:35.538Z,2.25
2023-02-20T12:15:03.211Z,2.28
2023-02-20T12:17:35.499Z,2.10
2023-02-20T12:20:07.952Z,2.38
2023-02-20T12:22:37.186Z,2.22
2023-02-20T12:25:13.992Z,4.07
2023-02-20T12:27:54.104Z,1.90
2023-02-20T12:30:27.514Z,2.17
2023-02-20T12:32:58.934Z,2.00
2023-02-20T12:35:30.601Z,1.98
2023-02-20T12:38:05.500Z,2.00
2023-02-20T12:40:38.375Z,1.90
2023-02-20T12:43:12.842Z,1.80
2023-02-20T12:45:43.716Z,2.45
2023-02-20T12:48:18.064Z,1.85
2023-02-20T12:50:52.068Z,2.20
2023-02-20T12:53:22.402Z,2.05
2023-02-20T12:55:53.291Z,2.35
2023-02-20T12:58:27.809Z,1.80
2023-02-20T13:00:57.609Z,2.00
2023-02-20T13:03:28.705Z,2.03
2023-02-20T13:05:56.239Z,2.17
2023-02-20T13:08:26.597Z,2.10
2023-02-20T13:10:56.832Z,1.92
2023-02-20T13:13:26.977Z,2.10
2023-02-20T13:15:59.690Z,2.10
2023-02-20T13:18:33.111Z,2.15
2023-02-20T13:21:12.176Z,2.22
2023-02-20T13:23:41.967Z,1.70
2023-02-20T13:26:43.659Z,2.15
2023-02-20T13:29:16.189Z,2.00
2023-02-20T13:31:46.506Z,2.08
2023-02-20T13:34:33.691Z,1.65
2023-02-20T13:37:11.260Z,2.13
2023-02-20T13:39:40.325Z,1.75
2023-02-20T13:42:23.025Z,1.95
2023-02-20T13:44:52.548Z,2.10
2023-02-20T13:47:38.129Z,2.00
2023-02-20T13:50:32.961Z,1.98
2023-02-20T13:53:02.362Z,2.05
2023-02-20T13:55:30.713Z,1.90
2023-02-20T13:58:02.817Z,1.75
2023-02-20T14:00:42.351Z,1.65
2023-02-20T14:03:13.520Z,1.70
2023-02-20T14:05:41.238Z,1.60
2023-02-20T14:08:19.136Z,1.50
2023-02-20T14:10:49.199Z,1.70
2023-02-20T14:13:23.006Z,1.70
2023-02-20T14:15:57.720Z,1.50
2023-02-20T14:18:25.854Z,1.80
2023-02-20T14:20:57.970Z,1.63
2023-02-20T14:23:26.720Z,1.50
2023-02-20T14:26:00.759Z,1.60
2023-02-20T14:28:29.216Z,1.40
2023-02-20T14:31:08.797Z,1.55
2023-02-20T14:33:36.240Z,1.40
2023-02-20T14:36:22.719Z,1.20
2023-02-20T14:38:56.829Z,1.40
2023-02-20T14:41:25.366Z,1.30
2023-02-20T14:43:57.102Z,1.48
2023-02-20T14:46:27.210Z,1.65
2023-02-20T14:49:06.004Z,1.35
2023-02-20T14:51:33.864Z,1.38
2023-02-20T14:54:04.783Z,1.33
2023-02-20T14:56:34.169Z,1.50
2023-02-20T14:59:16.460Z,1.58
2023-02-20T15:01:46.210Z,1.65
2023-02-20T15:04:16.206Z,1.63
2023-02-20T15:06:45.225Z,1.90
2023-02-20T15:09:22.353Z,1.77
2023-02-20T15:11:52.447Z,1.70
2023-02-20T15:14:21.885Z,1.50
2023-02-20T15:17:06.937Z,1.92
2023-02-20T15:19:35.900Z,2.85
2023-02-20T15:22:05.873Z,1.98
2023-02-20T15:24:40.423Z,1.45
2023-02-20T15:27:12.261Z,1.60
2023-02-20T15:29:39.819Z,1.75
2023-02-20T15:32:16.455Z,1.40
2023-02-20T15:34:44.032Z,1.50
2023-02-20T15:37:21.462Z,1.65
2023-02-20T15:39:53.356Z,1.70
2023-02-20T15:42:22.675Z,1.67
2023-02-20T15:44:50.524Z,1.55
2023-02-20T15:47:19.850Z,1.58
2023-02-20T15:49:47.359Z,1.35
2023-02-20T15:52:23.951Z,1.52
2023-02-20T15:54:58.251Z,1.70
2023-02-20T15:57:26.415Z,1.50
2023-02-20T15:59:55.846Z,2.03
2023-02-20T16:02:25.251Z,1.63
2023-02-20T16:04:53.215Z,1.90
2023-02-20T16:07:21.302Z,1.65
2023-02-20T16:09:49.017Z,1.35
2023-02-20T16:12:17.658Z,1.85
2023-02-20T16:14:45.250Z,4.78
2023-02-20T16:17:15.798Z,2.97
2023-02-20T16:19:44.809Z,2.70
2023-02-20T16:22:12.292Z,1.85
2023-02-20T16:24:45.275Z,1.70
2023-02-20T16:27:23.909Z,2.20
2023-02-20T16:29:52.640Z,2.40
2023-02-20T16:32:21.726Z,2.38
2023-02-20T16:34:51.290Z,1.88
2023-02-20T16:37:18.803Z,2.08
2023-02-20T16:39:46.308Z,3.90
2023-02-20T16:42:19.545Z,3.42
2023-02-20T16:44:47.584Z,4.68
2023-02-20T16:47:18.982Z,4.13
2023-02-20T16:49:46.717Z,4.38
2023-02-20T16:52:19.397Z,4.53
2023-02-20T16:54:47.443Z,2.65
2023-02-20T16:57:14.974Z,2.50
2023-02-20T16:59:45.399Z,3.47
2023-02-20T17:02:16.332Z,3.72
2023-02-20T17:04:45.833Z,3.03
2023-02-20T17:07:13.462Z,3.25
2023-02-20T17:09:45.870Z,2.38
2023-02-20T17:12:16.237Z,2.03
2023-02-20T17:14:44.421Z,1.90
2023-02-20T17:17:12.251Z,1.85
2023-02-20T17:19:40.848Z,1.60
2023-02-20T17:22:11.097Z,1.73
2023-02-20T17:24:40.564Z,2.05
2023-02-20T17:27:22.072Z,1.52
2023-02-20T17:29:49.956Z,1.90
2023-02-20T17:32:18.636Z,1.52
2023-02-20T17:34:46.276Z,1.73
2023-02-20T17:37:14.217Z,1.73
2023-02-20T17:39:41.943Z,2.08
2023-02-20T17:42:09.745Z,2.17
2023-02-20T17:44:39.796Z,2.53
2023-02-20T17:47:09.388Z,2.85
2023-02-20T17:49:39.424Z,1.70
2023-02-20T17:52:08.408Z,2.25
2023-02-20T17:54:36.806Z,2.22
2023-02-20T17:57:04.529Z,2.20
2023-02-20T17:59:32.072Z,2.30
2023-02-20T18:02:00.931Z,2.40
2023-02-20T18:04:28.445Z,2.50
2023-02-20T18:06:56.014Z,2.47
2023-02-20T18:09:23.547Z,2.95
2023-02-20T18:11:51.788Z,2.92
2023-02-20T18:14:20.497Z,2.92
2023-02-20T18:16:48.141Z,3.63
2023-02-20T18:19:17.821Z,3.03
2023-02-20T18:21:49.391Z,2.50
2023-02-20T18:24:17.677Z,2.85
2023-02-20T18:26:45.359Z,3.20
2023-02-20T18:29:12.970Z,2.92
2023-02-20T18:31:40.680Z,2.90
2023-02-20T18:34:08.276Z,3.33
2023-02-20T18:36:37.904Z,3.80
2023-02-20T18:39:05.569Z,3.58
2023-02-20T18:41:34.502Z,3.58
2023-02-20T18:44:02.041Z,3.83
2023-02-20T18:46:30.446Z,3.65
2023-02-20T18:48:58.925Z,3.25
2023-02-20T18:51:27.281Z,4.03
2023-02-20T18:53:56.144Z,4.47
2023-02-20T18:56:23.862Z,3.90
2023-02-20T18:58:51.427Z,5.03
2023-02-20T19:01:20.683Z,27.27
2023-02-20T19:03:48.679Z,22.98
2023-02-20T19:06:24.607Z,18.25
2023-02-20T19:08:52.427Z,14.50
2023-02-20T19:11:21.521Z,11.77
2023-02-20T19:13:49.146Z,9.50
2023-02-20T19:16:17.249Z,5.88
2023-02-20T19:18:50.546Z,5.53
2023-02-20T19:21:18.946Z,6.10
2023-02-20T19:23:46.769Z,8.10
2023-02-20T19:26:14.620Z,5.05
2023-02-20T19:28:43.746Z,5.00
2023-02-20T19:31:12.012Z,5.22
2023-02-20T19:33:39.925Z,5.68
2023-02-20T19:36:10.299Z,4.63
2023-02-20T19:38:38.558Z,5.75
2023-02-20T19:41:30.111Z,5.00
2023-02-20T19:43:59.036Z,5.25
2023-02-20T19:46:26.590Z,5.20
2023-02-20T19:48:54.096Z,5.38
2023-02-20T19:51:22.102Z,7.38
2023-02-20T19:53:50.251Z,7.18
2023-02-20T19:56:20.437Z,8.00
2023-02-20T19:58:47.903Z,8.23
2023-02-20T20:01:17.842Z,8.45
2023-02-20T20:03:45.569Z,8.38
2023-02-20T20:06:16.581Z,5.88
2023-02-20T20:09:09.230Z,6.18
2023-02-20T20:11:32.003Z,6.05
2023-02-20T20:13:59.787Z,4.73
2023-02-20T20:16:28.813Z,4.53
2023-02-20T20:18:56.374Z,5.13
2023-02-20T20:21:23.969Z,4.60
2023-02-20T20:23:53.443Z,4.82
2023-02-20T20:26:20.990Z,5.53
2023-02-20T20:28:48.548Z,5.57
2023-02-20T20:31:19.365Z,5.53
2023-02-20T20:33:48.347Z,4.05
2023-02-20T20:36:16.095Z,4.25
2023-02-20T20:38:43.851Z,4.28
2023-02-20T20:41:12.227Z,4.60
2023-02-20T20:43:39.856Z,4.50
2023-02-20T20:46:07.333Z,4.07
2023-02-20T20:48:34.822Z,3.70
2023-02-20T20:51:03.670Z,4.47
2023-02-20T20:53:31.100Z,4.60
2023-02-20T20:55:58.669Z,4.47
2023-02-20T20:58:26.389Z,4.80
2023-02-20T21:00:54.506Z,4.20
2023-02-20T21:03:21.979Z,4.82
2023-02-20T21:05:49.589Z,4.18
2023-02-20T21:08:18.436Z,4.50
2023-02-20T21:10:46.304Z,4.63
2023-02-20T21:13:13.743Z,4.63
2023-02-20T21:15:41.295Z,4.43
2023-02-20T21:18:09.053Z,3.50
2023-02-20T21:20:36.676Z,3.93
2023-02-20T21:23:06.443Z,4.20
2023-02-20T21:25:35.232Z,5.10
2023-02-20T21:28:03.923Z,5.17
2023-02-20T21:30:31.485Z,5.30
2023-02-20T21:32:59.609Z,5.27
2023-02-20T21:35:27.165Z,4.87
2023-02-20T21:37:54.885Z,5.30
2023-02-20T21:40:22.507Z,5.63
2023-02-20T21:43:08.910Z,6.77
2023-02-20T21:45:37.117Z,6.57
2023-02-20T21:48:05.475Z,6.93
2023-02-20T21:50:33.199Z,6.50
2023-02-20T21:53:01.964Z,6.43
2023-02-20T21:55:29.447Z,6.40
2023-02-20T21:58:03.188Z,6.80
2023-02-20T22:00:29.505Z,6.43
2023-02-20T22:02:56.200Z,6.87
2023-02-20T22:05:22.578Z,5.77
2023-02-20T22:08:07.608Z,6.27
2023-02-20T22:10:53.024Z,4.70
2023-02-20T22:13:39.309Z,4.07
2023-02-20T22:16:24.633Z,3.80
2023-02-20T22:19:09.958Z,6.00
2023-02-20T22:22:01.186Z,5.33
2023-02-20T22:24:46.020Z,6.37
2023-02-20T22:27:31.444Z,6.37
2023-02-20T22:30:17.516Z,5.50
2023-02-20T22:33:23.427Z,5.70
2023-02-20T22:36:08.465Z,5.70
2023-02-20T22:38:53.238Z,6.60
2023-02-20T22:41:47.471Z,6.50
2023-02-20T22:44:32.570Z,5.97
2023-02-20T22:47:20.362Z,7.10
2023-02-20T22:50:05.303Z,6.57
2023-02-20T22:52:50.448Z,5.97
2023-02-20T22:55:38.682Z,5.90
2023-02-20T22:58:25.718Z,5.67
2023-02-20T23:01:10.927Z,6.10
2023-02-20T23:03:58.163Z,6.13
2023-02-20T23:06:45.975Z,6.70
2023-02-20T23:09:31.666Z,6.27
2023-02-20T23:12:30.669Z,5.67
2023-02-20T23:15:24.442Z,5.97
2023-02-20T23:18:09.528Z,6.30
2023-02-20T23:20:55.793Z,7.00
2023-02-20T23:23:40.894Z,6.70
2023-02-20T23:26:26.099Z,6.40
2023-02-20T23:29:10.880Z,6.80
2023-02-20T23:31:56.925Z,7.47
2023-02-20T23:34:42.699Z,6.53
2023-02-20T23:37:29.358Z,6.50
2023-02-20T23:40:17.246Z,6.40
2023-02-20T23:43:06.167Z,6.43
2023-02-20T23:45:51.224Z,6.03
2023-02-20T23:48:36.359Z,6.40
2023-02-20T23:51:21.504Z,6.97
2023-02-20T23:54:07.584Z,7.13
2023-02-20T23:56:52.463Z,7.43
2023-02-20T23:59:37.555Z,7.27
